Time;durP1;ratioP1;P1;durP2;ratioP2;P2;SDS_P1;SDS_P2;PMS_P1;PMS_P2;Temp;Humidity;BMP_temperature;BMP_pressure;BME280_temperature;BME280_humidity;BME280_pressure;Samples;Min_cycle;Max_cycle;Signal;HPM_P1;HPM_P2
2023/03/12 00:00:40;;;;;;;;;;;18.30;82.50;;;;;;5114917;28;20339;-59
2023/03/12 00:03:06;;;;;;;;;;;18.40;82.50;;;;;;5114981;28;19922;-59
2023/03/12 00:05:32;;;;;;;;;;;18.30;82.50;;;;;;5115478;28;19951;-59
2023/03/12 00:07:58;;;;;;;;;;;18.30;82.50;;;;;;5114900;28;19908;-58
2023/03/12 00:10:24;;;;;;;;;;;18.30;82.60;;;;;;5114974;28;19908;-59
2023/03/12 00:12:50;;;;;;;;;;;18.30;82.70;;;;;;5114939;28;19907;-59
2023/03/12 00:15:15;;;;;;;;;;;18.30;82.70;;;;;;5114891;28;20346;-58
2023/03/12 00:17:41;;;;;;;;;;;18.30;82.70;;;;;;5115414;28;19908;-59
2023/03/12 00:20:06;;;;;;;;;;;18.30;82.70;;;;;;5114699;28;19953;-59
2023/03/12 00:22:32;;;;;;;;;;;18.20;82.70;;;;;;5114988;28;20350;-58
2023/03/12 00:24:58;;;;;;;;;;;18.30;82.70;;;;;;5114822;28;20342;-59
2023/03/12 00:27:24;;;;;;;;;;;18.20;82.70;;;;;;5114064;28;19911;-59
2023/03/12 00:29:50;;;;;;;;;;;18.20;82.70;;;;;;5115020;28;19907;-59
2023/03/12 00:32:15;;;;;;;;;;;18.20;82.70;;;;;;5114595;28;20434;-59
2023/03/12 00:34:41;;;;;;;;;;;18.20;82.70;;;;;;5114358;28;19912;-59
2023/03/12 00:37:07;;;;;;;;;;;18.20;82.70;;;;;;5114761;28;19908;-59
2023/03/12 00:39:33;;;;;;;;;;;18.20;82.70;;;;;;5114970;28;19961;-58
2023/03/12 00:41:58;;;;;;;;;;;18.20;82.80;;;;;;5114080;28;20355;-58
2023/03/12 00:44:24;;;;;;;;;;;18.20;82.60;;;;;;5114298;28;19914;-59
2023/03/12 00:46:49;;;;;;;;;;;18.20;82.60;;;;;;5096289;28;19914;-59
2023/03/12 00:49:15;;;;;;;;;;;18.20;82.70;;;;;;5114537;28;20266;-59
2023/03/12 00:51:40;;;;;;;;;;;18.20;82.70;;;;;;5114548;28;19930;-59
2023/03/12 00:54:06;;;;;;;;;;;18.20;82.60;;;;;;5114544;28;19919;-58
2023/03/12 00:56:31;;;;;;;;;;;18.20;82.60;;;;;;5114232;28;19999;-58
2023/03/12 00:58:57;;;;;;;;;;;18.20;82.60;;;;;;5114158;28;19914;-59
2023/03/12 01:01:22;;;;;;;;;;;18.20;82.60;;;;;;5114193;28;19916;-59
2023/03/12 01:03:49;;;;;;;;;;;18.20;82.60;;;;;;5096312;28;19912;-59
2023/03/12 01:06:14;;;;;;;;;;;18.20;82.60;;;;;;5114205;28;19908;-59
2023/03/12 01:08:40;;;;;;;;;;;18.20;82.60;;;;;;5114405;28;19908;-58
2023/03/12 01:11:05;;;;;;;;;;;18.20;82.70;;;;;;5114171;28;19949;-59
2023/03/12 01:13:31;;;;;;;;;;;18.20;82.70;;;;;;5114385;28;20354;-59
2023/03/12 01:15:56;;;;;;;;;;;18.20;82.70;;;;;;5114351;28;19915;-59
2023/03/12 01:18:21;;;;;;;;;;;18.20;82.70;;;;;;5114433;28;19961;-59
2023/03/12 01:20:47;;;;;;;;;;;18.20;82.80;;;;;;5114414;28;20307;-59
2023/03/12 01:23:13;;;;;;;;;;;18.20;82.80;;;;;;5114260;28;19916;-59
2023/03/12 01:25:39;;;;;;;;;;;18.20;82.80;;;;;;5114021;28;19908;-58
2023/03/12 01:28:05;;;;;;;;;;;18.20;82.90;;;;;;5113979;28;19951;-59
2023/03/12 01:30:30;;;;;;;;;;;18.10;82.90;;;;;;5095975;28;20381;-58
2023/03/12 01:32:56;;;;;;;;;;;18.10;82.80;;;;;;5113932;28;19907;-59
2023/03/12 01:35:21;;;;;;;;;;;18.20;82.90;;;;;;5113862;28;20290;-59
2023/03/12 01:37:47;;;;;;;;;;;18.20;82.80;;;;;;5114209;28;19969;-59
2023/03/12 01:40:17;;;;;;;;;;;18.10;82.90;;;;;;5115056;28;19920;-58
2023/03/12 01:42:42;;;;;;;;;;;18.10;82.80;;;;;;5118180;28;19915;-59
2023/03/12 01:45:27;;;;;;;;;;;18.10;82.90;;;;;;5118051;28;19908;-59
2023/03/12 01:47:52;;;;;;;;;;;18.10;83.00;;;;;;5117915;28;20360;-59
2023/03/12 01:50:18;;;;;;;;;;;18.10;82.90;;;;;;5117910;28;19908;-59
2023/03/12 01:52:43;;;;;;;;;;;18.10;82.90;;;;;;5117547;28;19928;-59
2023/03/12 01:55:10;;;;;;;;;;;18.10;83.00;;;;;;5117781;28;19931;-59
2023/03/12 01:57:50;;;;;;;;;;;18.10;83.00;;;;;;5117790;28;20243;-59
2023/03/12 02:00:18;;;;;;;;;;;18.10;82.90;;;;;;5117370;28;19912;-59
2023/03/12 02:02:45;;;;;;;;;;;18.10;83.00;;;;;;5117573;28;19968;-59
2023/03/12 02:05:23;;;;;;;;;;;18.10;83.60;;;;;;5117309;28;20362;-59
2023/03/12 02:07:49;;;;;;;;;;;18.10;83.00;;;;;;5117625;28;20300;-59
2023/03/12 02:10:15;;;;;;;;;;;18.10;83.00;;;;;;5117490;28;19908;-59
2023/03/12 02:12:40;;;;;;;;;;;18.10;82.90;;;;;;5117181;28;19915;-59
2023/03/12 02:15:06;;;;;;;;;;;18.10;83.00;;;;;;5117284;28;20355;-59
2023/03/12 02:17:32;;;;;;;;;;;18.10;83.10;;;;;;5116982;28;19915;-59
2023/03/12 02:20:06;;;;;;;;;;;18.10;83.20;;;;;;5117323;28;19908;-57
2023/03/12 02:22:32;;;;;;;;;;;18.10;83.20;;;;;;5117011;28;19916;-59
2023/03/12 02:25:20;;;;;;;;;;;18.10;83.20;;;;;;5116873;28;19987;-59
2023/03/12 02:27:46;;;;;;;;;;;18.10;83.00;;;;;;5117226;28;20011;-59
2023/03/12 02:30:14;;;;;;;;;;;18.10;83.00;;;;;;5116917;28;19943;-59
2023/03/12 02:32:41;;;;;;;;;;;18.10;83.00;;;;;;5098775;28;19915;-59
2023/03/12 02:35:07;;;;;;;;;;;18.10;83.00;;;;;;5116675;28;20412;-58
2023/03/12 02:37:33;;;;;;;;;;;18.10;83.00;;;;;;5116346;28;19908;-58
2023/03/12 02:40:00;;;;;;;;;;;18.10;83.00;;;;;;5116443;28;19907;-59
2023/03/12 02:42:26;;;;;;;;;;;18.10;83.10;;;;;;5098622;28;19919;-59
2023/03/12 02:44:52;;;;;;;;;;;18.10;83.00;;;;;;5098387;28;19961;-58
2023/03/12 02:47:18;;;;;;;;;;;18.10;83.00;;;;;;5116468;28;19914;-59
2023/03/12 02:49:43;;;;;;;;;;;18.00;82.90;;;;;;5116885;28;19907;-59
2023/03/12 02:52:09;;;;;;;;;;;18.10;83.00;;;;;;5116500;28;19908;-59
2023/03/12 02:54:35;;;;;;;;;;;18.10;83.00;;;;;;5116601;28;19947;-59
2023/03/12 02:57:00;;;;;;;;;;;18.10;83.00;;;;;;5097823;28;19951;-58
2023/03/12 02:59:26;;;;;;;;;;;18.10;82.90;;;;;;5116387;28;19911;-59
2023/03/12 03:01:56;;;;;;;;;;;18.10;82.90;;;;;;5116124;28;19916;-58
2023/03/12 03:04:22;;;;;;;;;;;18.10;82.90;;;;;;5116389;28;19960;-59
2023/03/12 03:06:48;;;;;;;;;;;18.10;82.80;;;;;;5116283;28;20022;-59
2023/03/12 03:09:14;;;;;;;;;;;18.10;82.80;;;;;;5116313;28;19908;-58
2023/03/12 03:11:39;;;;;;;;;;;18.10;82.90;;;;;;5115961;28;19931;-57
2023/03/12 03:14:05;;;;;;;;;;;18.10;82.80;;;;;;5116453;28;19915;-59
2023/03/12 03:16:31;;;;;;;;;;;18.10;83.00;;;;;;5116124;28;20258;-58
2023/03/12 03:18:57;;;;;;;;;;;18.10;83.00;;;;;;5116068;28;19987;-57
2023/03/12 03:21:23;;;;;;;;;;;18.00;83.10;;;;;;5115680;28;19922;-59
2023/03/12 03:23:48;;;;;;;;;;;18.00;83.20;;;;;;5115725;28;19929;-57
2023/03/12 03:26:15;;;;;;;;;;;18.00;83.20;;;;;;5115983;28;19908;-58
2023/03/12 03:28:40;;;;;;;;;;;18.00;83.20;;;;;;5115890;28;20370;-58
2023/03/12 03:31:06;;;;;;;;;;;18.00;83.20;;;;;;5115731;28;19965;-60
2023/03/12 03:33:33;;;;;;;;;;;17.80;73.40;;;;;;5115550;28;20358;-59
2023/03/12 03:35:59;;;;;;;;;;;17.60;76.00;;;;;;5115478;28;20018;-59
2023/03/12 03:38:25;;;;;;;;;;;17.70;81.10;;;;;;5115723;28;20382;-59
2023/03/12 03:40:51;;;;;;;;;;;17.70;81.70;;;;;;5115466;28;20293;-58
2023/03/12 03:43:16;;;;;;;;;;;17.80;81.80;;;;;;5115638;28;19968;-59
2023/03/12 03:45:43;;;;;;;;;;;17.80;81.80;;;;;;5115713;28;20302;-59
2023/03/12 03:48:09;;;;;;;;;;;17.80;81.80;;;;;;5115525;28;19908;-59
2023/03/12 03:50:36;;;;;;;;;;;17.90;81.90;;;;;;5115828;28;19958;-59
2023/03/12 03:53:01;;;;;;;;;;;17.90;82.10;;;;;;5115491;28;19911;-59
2023/03/12 03:55:27;;;;;;;;;;;17.90;82.00;;;;;;5097188;28;20350;-58
2023/03/12 03:57:52;;;;;;;;;;;17.90;82.20;;;;;;5115354;28;19951;-57
2023/03/12 04:00:18;;;;;;;;;;;17.90;82.20;;;;;;5115722;28;20362;-59
2023/03/12 04:02:43;;;;;;;;;;;17.90;82.20;;;;;;5114595;28;19984;-57
2023/03/12 04:05:09;;;;;;;;;;;17.90;82.20;;;;;;5115197;28;19914;-58
2023/03/12 04:07:35;;;;;;;;;;;17.90;82.40;;;;;;5097027;28;20010;-58
2023/03/12 04:10:02;;;;;;;;;;;17.90;82.30;;;;;;5115200;28;19908;-58
2023/03/12 04:12:28;;;;;;;;;;;17.90;82.50;;;;;;5115111;28;19908;-57
2023/03/12 04:14:54;;;;;;;;;;;17.90;82.50;;;;;;5115071;28;19994;-58
2023/03/12 04:17:19;;;;;;;;;;;17.90;82.50;;;;;;5115062;28;19966;-58
2023/03/12 04:19:45;;;;;;;;;;;17.80;82.40;;;;;;5114823;28;20490;-58
2023/03/12 04:22:10;;;;;;;;;;;17.80;82.40;;;;;;5114614;28;19919;-58
2023/03/12 04:24:35;;;;;;;;;;;17.80;82.50;;;;;;5114710;28;19953;-58
2023/03/12 04:27:01;;;;;;;;;;;17.80;82.50;;;;;;5114844;28;20056;-58
2023/03/12 04:29:27;;;;;;;;;;;17.80;82.50;;;;;;5114587;28;20266;-58
2023/03/12 04:31:52;;;;;;;;;;;17.90;82.60;;;;;;5096583;28;19955;-58
2023/03/12 04:34:18;;;;;;;;;;;17.80;82.60;;;;;;5114501;28;20399;-58
2023/03/12 04:36:44;;;;;;;;;;;17.80;82.60;;;;;;5114526;28;20002;-58
2023/03/12 04:39:09;;;;;;;;;;;17.80;82.60;;;;;;5114778;28;19907;-58
2023/03/12 04:41:35;;;;;;;;;;;17.80;82.60;;;;;;5114747;28;20101;-58
2023/03/12 04:44:01;;;;;;;;;;;17.80;82.60;;;;;;5114645;28;20376;-58
2023/03/12 04:46:27;;;;;;;;;;;17.80;82.60;;;;;;5114916;28;19953;-57
2023/03/12 04:48:52;;;;;;;;;;;17.80;82.60;;;;;;5114391;28;19957;-58
2023/03/12 04:51:18;;;;;;;;;;;17.80;82.50;;;;;;5114573;28;19909;-58
2023/03/12 04:53:43;;;;;;;;;;;17.80;82.60;;;;;;5114356;28;19915;-59
2023/03/12 04:56:09;;;;;;;;;;;17.80;82.60;;;;;;5114388;28;20302;-57
2023/03/12 04:58:35;;;;;;;;;;;17.80;82.60;;;;;;5114168;28;19918;-58
2023/03/12 05:01:00;;;;;;;;;;;17.80;82.70;;;;;;5096325;28;19908;-58
2023/03/12 05:03:26;;;;;;;;;;;17.80;82.80;;;;;;5114181;28;20285;-58
2023/03/12 05:05:51;;;;;;;;;;;17.80;82.80;;;;;;5114809;28;20258;-57
2023/03/12 05:08:17;;;;;;;;;;;17.80;82.70;;;;;;5114746;28;19912;-57
2023/03/12 05:10:45;;;;;;;;;;;17.80;82.70;;;;;;5114408;28;19986;-58
2023/03/12 05:13:15;;;;;;;;;;;17.80;82.70;;;;;;5114360;28;19911;-58
2023/03/12 05:15:40;;;;;;;;;;;17.80;82.80;;;;;;5118147;28;19908;-58
2023/03/12 05:18:06;;;;;;;;;;;17.80;82.90;;;;;;5118483;28;20354;-58
2023/03/12 05:20:31;;;;;;;;;;;17.80;82.90;;;;;;5118495;28;19907;-58
2023/03/12 05:22:57;;;;;;;;;;;17.80;82.90;;;;;;5118442;28;19923;-58
2023/03/12 05:25:22;;;;;;;;;;;17.80;82.90;;;;;;5099997;28;19908;-57
2023/03/12 05:27:48;;;;;;;;;;;17.80;82.90;;;;;;5118076;28;20015;-58
2023/03/12 05:30:13;;;;;;;;;;;17.80;82.90;;;;;;5117981;28;20010;-59
2023/03/12 05:32:38;;;;;;;;;;;17.80;82.90;;;;;;5117956;28;20351;-59
2023/03/12 05:35:04;;;;;;;;;;;17.80;82.80;;;;;;5117906;28;20373;-58
2023/03/12 05:37:29;;;;;;;;;;;17.70;82.70;;;;;;5117909;28;19998;-59
2023/03/12 05:39:55;;;;;;;;;;;17.80;82.80;;;;;;5117986;28;19911;-58
2023/03/12 05:42:23;;;;;;;;;;;17.80;82.90;;;;;;5117716;28;20354;-59
2023/03/12 05:44:49;;;;;;;;;;;17.70;82.90;;;;;;5117698;28;20282;-59
2023/03/12 05:47:14;;;;;;;;;;;17.70;82.90;;;;;;5117531;28;20290;-58
2023/03/12 05:49:40;;;;;;;;;;;17.70;82.90;;;;;;5117642;28;19915;-58
2023/03/12 05:52:05;;;;;;;;;;;17.80;82.90;;;;;;5117882;28;20251;-58
2023/03/12 05:54:31;;;;;;;;;;;17.70;83.00;;;;;;5117545;28;20386;-59
2023/03/12 05:56:56;;;;;;;;;;;17.70;82.80;;;;;;5117826;28;19931;-58
2023/03/12 05:59:22;;;;;;;;;;;17.70;82.90;;;;;;5117542;28;20011;-58
2023/03/12 06:01:47;;;;;;;;;;;17.80;82.90;;;;;;5117818;28;20010;-58
2023/03/12 06:04:13;;;;;;;;;;;17.80;83.00;;;;;;5117677;28;19908;-59
2023/03/12 06:06:38;;;;;;;;;;;17.70;82.90;;;;;;5117595;28;19908;-58
2023/03/12 06:09:04;;;;;;;;;;;17.70;82.90;;;;;;5117247;28;19977;-58
2023/03/12 06:11:31;;;;;;;;;;;17.70;82.90;;;;;;5114889;28;20324;-59
2023/03/12 06:13:56;;;;;;;;;;;17.70;83.00;;;;;;5117354;28;19911;-57
2023/03/12 06:16:23;;;;;;;;;;;17.70;83.10;;;;;;5117241;28;20365;-59
2023/03/12 06:18:51;;;;;;;;;;;17.70;83.00;;;;;;5117086;28;19908;-58
2023/03/12 06:21:19;;;;;;;;;;;17.70;82.90;;;;;;5116927;28;19958;-58
2023/03/12 06:23:45;;;;;;;;;;;17.70;83.00;;;;;;5098935;28;19935;-59
2023/03/12 06:26:11;;;;;;;;;;;17.70;83.10;;;;;;5116013;28;20327;-58
2023/03/12 06:28:37;;;;;;;;;;;17.70;83.00;;;;;;5115198;28;19936;-59
2023/03/12 06:31:02;;;;;;;;;;;17.80;82.90;;;;;;5114898;28;19939;-58
2023/03/12 06:33:28;;;;;;;;;;;17.80;82.50;;;;;;5112796;28;19912;-58
2023/03/12 06:35:54;;;;;;;;;;;17.80;83.00;;;;;;5120317;27;19912;-58
2023/03/12 06:38:19;;;;;;;;;;;17.80;82.90;;;;;;5116034;27;19912;-58
2023/03/12 06:40:52;;;;;;;;;;;17.80;82.90;;;;;;5116397;28;19946;-58
2023/03/12 06:43:17;;;;;;;;;;;17.80;82.70;;;;;;5122028;27;19927;-58
2023/03/12 06:45:43;;;;;;;;;;;17.80;82.40;;;;;;5135713;27;19911;-58
2023/03/12 06:48:08;;;;;;;;;;;17.90;82.20;;;;;;5117088;27;19912;-58
2023/03/12 06:50:34;;;;;;;;;;;17.90;82.10;;;;;;5116720;28;19908;-57
2023/03/12 06:53:00;;;;;;;;;;;17.90;82.00;;;;;;5116368;28;19916;-58
2023/03/12 06:55:25;;;;;;;;;;;17.90;82.00;;;;;;5114670;28;19958;-58
2023/03/12 06:57:50;;;;;;;;;;;17.90;81.90;;;;;;5113447;28;19954;-58
2023/03/12 07:00:17;;;;;;;;;;;17.90;82.00;;;;;;5116894;28;20334;-59
2023/03/12 07:02:43;;;;;;;;;;;18.00;81.90;;;;;;5104788;28;19927;-58
2023/03/12 07:05:08;;;;;;;;;;;18.00;82.00;;;;;;5113587;28;19907;-58
2023/03/12 07:07:34;;;;;;;;;;;17.90;81.90;;;;;;5116310;28;19907;-58
2023/03/12 07:09:59;;;;;;;;;;;17.90;82.10;;;;;;5116268;28;20305;-59
2023/03/12 07:12:25;;;;;;;;;;;17.90;82.30;;;;;;5115941;28;20398;-57
2023/03/12 07:14:50;;;;;;;;;;;18.00;82.10;;;;;;5116357;28;19914;-58
2023/03/12 07:17:16;;;;;;;;;;;17.90;82.10;;;;;;5115976;28;19912;-58
2023/03/12 07:19:41;;;;;;;;;;;17.90;82.20;;;;;;5116089;28;20010;-58
2023/03/12 07:22:06;;;;;;;;;;;17.90;82.20;;;;;;5115958;28;20326;-58
2023/03/12 07:24:32;;;;;;;;;;;17.90;82.20;;;;;;5115917;28;19907;-58
2023/03/12 07:26:57;;;;;;;;;;;17.90;82.20;;;;;;5115715;28;19961;-57
2023/03/12 07:29:23;;;;;;;;;;;17.90;82.20;;;;;;5114166;27;19914;-59
2023/03/12 07:31:48;;;;;;;;;;;17.90;82.10;;;;;;5111176;28;20259;-59
2023/03/12 07:34:14;;;;;;;;;;;17.90;82.10;;;;;;5135501;27;19912;-58
2023/03/12 07:36:39;;;;;;;;;;;17.90;82.00;;;;;;5124495;27;19914;-59
2023/03/12 07:39:05;;;;;;;;;;;17.90;81.90;;;;;;5134256;27;19912;-59
2023/03/12 07:41:30;;;;;;;;;;;17.90;81.90;;;;;;5115732;27;19919;-60
2023/03/12 07:43:56;;;;;;;;;;;17.90;81.90;;;;;;5112104;28;19961;-62
2023/03/12 07:46:21;;;;;;;;;;;17.90;81.60;;;;;;5112276;28;20006;-62
2023/03/12 07:48:46;;;;;;;;;;;17.90;81.70;;;;;;5114053;28;19915;-62
2023/03/12 07:51:12;;;;;;;;;;;17.90;81.70;;;;;;5110581;27;19953;-62
2023/03/12 07:53:37;;;;;;;;;;;17.90;81.70;;;;;;5115188;28;19911;-62
2023/03/12 07:56:03;;;;;;;;;;;17.90;81.70;;;;;;5115423;28;19910;-62
2023/03/12 07:58:28;;;;;;;;;;;17.90;81.70;;;;;;5097267;28;20317;-62
2023/03/12 08:00:55;;;;;;;;;;;17.90;81.60;;;;;;5115750;28;19913;-62
2023/03/12 08:03:20;;;;;;;;;;;17.90;81.60;;;;;;5115048;28;19912;-62
2023/03/12 08:05:54;;;;;;;;;;;17.90;81.60;;;;;;5115296;28;19930;-62
2023/03/12 08:08:19;;;;;;;;;;;17.80;81.60;;;;;;5097102;28;19955;-62
2023/03/12 08:10:45;;;;;;;;;;;17.80;81.60;;;;;;5115656;27;19947;-62
2023/03/12 08:13:10;;;;;;;;;;;17.80;81.60;;;;;;5103612;28;19959;-62
2023/03/12 08:15:36;;;;;;;;;;;17.80;81.60;;;;;;5111606;28;19918;-62
2023/03/12 08:18:01;;;;;;;;;;;17.80;81.60;;;;;;5108592;28;19908;-62
2023/03/12 08:20:26;;;;;;;;;;;17.80;81.60;;;;;;5112801;28;19912;-62
2023/03/12 08:22:52;;;;;;;;;;;17.80;81.60;;;;;;5117526;27;19972;-62
2023/03/12 08:25:19;;;;;;;;;;;17.80;81.60;;;;;;5135497;27;20026;-62
2023/03/12 08:27:45;;;;;;;;;;;17.80;81.60;;;;;;5122092;27;20003;-62
2023/03/12 08:30:11;;;;;;;;;;;17.80;81.60;;;;;;5114839;28;19960;-62
2023/03/12 08:32:36;;;;;;;;;;;17.80;81.60;;;;;;5110107;28;19931;-61
2023/03/12 08:35:04;;;;;;;;;;;17.80;81.40;;;;;;5109989;28;19920;-64
2023/03/12 08:37:29;;;;;;;;;;;17.90;81.40;;;;;;5100506;28;19912;-67
2023/03/12 08:39:56;;;;;;;;;;;17.90;81.40;;;;;;5115102;27;19916;-69
2023/03/12 08:42:21;;;;;;;;;;;18.00;81.40;;;;;;5104918;28;19927;-70
2023/03/12 08:44:47;;;;;;;;;;;18.10;81.30;;;;;;5094432;28;19915;-66
2023/03/12 08:47:12;;;;;;;;;;;18.20;81.20;;;;;;5114277;28;19922;-69
2023/03/12 08:49:38;;;;;;;;;;;18.40;80.90;;;;;;5113977;28;19960;-67
2023/03/12 08:52:03;;;;;;;;;;;18.60;80.40;;;;;;5115145;28;19916;-67
2023/03/12 08:54:29;;;;;;;;;;;18.90;80.00;;;;;;5114806;28;19908;-70
2023/03/12 08:56:54;;;;;;;;;;;19.20;79.50;;;;;;5114371;28;19922;-62
2023/03/12 08:59:21;;;;;;;;;;;19.50;78.80;;;;;;5114572;28;19976;-63
2023/03/12 09:01:46;;;;;;;;;;;19.70;78.40;;;;;;5114629;28;19929;-69
2023/03/12 09:04:12;;;;;;;;;;;19.80;77.90;;;;;;5118213;28;19908;-71
2023/03/12 09:06:37;;;;;;;;;;;20.00;77.60;;;;;;5114339;28;19952;-69
2023/03/12 09:09:03;;;;;;;;;;;20.10;77.50;;;;;;5114606;28;19912;-73
2023/03/12 09:11:33;;;;;;;;;;;20.20;77.30;;;;;;5119311;28;19995;-64
2023/03/12 09:13:59;;;;;;;;;;;20.20;77.30;;;;;;5116558;28;19915;-65
2023/03/12 09:16:25;;;;;;;;;;;20.30;77.20;;;;;;5114436;28;19908;-65
2023/03/12 09:18:50;;;;;;;;;;;20.30;77.30;;;;;;5114019;28;20002;-65
2023/03/12 09:21:16;;;;;;;;;;;20.30;77.30;;;;;;5114477;28;20290;-63
2023/03/12 09:23:41;;;;;;;;;;;20.30;77.40;;;;;;5114617;28;20277;-68
2023/03/12 09:26:10;;;;;;;;;;;20.30;77.50;;;;;;5114649;28;19911;-67
2023/03/12 09:28:36;;;;;;;;;;;20.30;77.60;;;;;;5116424;28;20369;-70
2023/03/12 09:31:02;;;;;;;;;;;20.20;77.50;;;;;;5115697;28;19998;-68
2023/03/12 09:33:27;;;;;;;;;;;20.20;77.70;;;;;;5114232;28;19911;-67
2023/03/12 09:35:57;;;;;;;;;;;20.20;77.60;;;;;;5113812;28;19908;-64
2023/03/12 09:38:23;;;;;;;;;;;20.20;77.80;;;;;;5095767;28;20424;-64
2023/03/12 09:40:48;;;;;;;;;;;20.20;77.90;;;;;;5123049;28;19919;-67
2023/03/12 09:43:20;;;;;;;;;;;20.20;77.70;;;;;;5132060;28;19915;-69
2023/03/12 09:45:46;;;;;;;;;;;20.20;78.00;;;;;;5121539;28;19922;-69
2023/03/12 09:48:17;;;;;;;;;;;20.20;78.00;;;;;;5114519;28;19908;-67
2023/03/12 09:50:44;;;;;;;;;;;20.20;78.10;;;;;;5095696;28;19915;-70
2023/03/12 09:53:13;;;;;;;;;;;20.10;78.20;;;;;;5114026;28;19908;-68
2023/03/12 09:55:40;;;;;;;;;;;20.10;78.20;;;;;;5113734;28;20277;-71
2023/03/12 09:58:11;;;;;;;;;;;20.20;78.10;;;;;;5095687;28;19908;-66
2023/03/12 10:00:36;;;;;;;;;;;20.20;78.20;;;;;;5113730;28;20388;-66
2023/03/12 10:03:08;;;;;;;;;;;20.20;78.10;;;;;;5117362;28;19916;-64
2023/03/12 10:05:45;;;;;;;;;;;20.20;78.00;;;;;;5099415;28;19943;-66
2023/03/12 10:08:23;;;;;;;;;;;20.30;78.00;;;;;;5117617;28;19907;-65
2023/03/12 10:10:58;;;;;;;;;;;20.30;78.20;;;;;;5127477;27;19992;-65
2023/03/12 10:13:23;;;;;;;;;;;20.30;77.90;;;;;;5137738;27;19914;-69
2023/03/12 10:16:01;;;;;;;;;;;20.30;78.10;;;;;;5137917;27;19912;-70
2023/03/12 10:18:37;;;;;;;;;;;20.30;78.10;;;;;;5124077;27;19916;-69
2023/03/12 10:21:08;;;;;;;;;;;20.30;78.10;;;;;;5117557;28;19947;-69
2023/03/12 10:23:33;;;;;;;;;;;20.30;78.30;;;;;;5116877;28;20306;-71
2023/03/12 10:26:05;;;;;;;;;;;20.20;78.20;;;;;;5099026;28;19914;-70
2023/03/12 10:28:50;;;;;;;;;;;20.20;78.40;;;;;;5117249;28;19953;-74
2023/03/12 10:31:26;;;;;;;;;;;20.20;78.50;;;;;;5124699;27;19958;-70
2023/03/12 10:33:56;;;;;;;;;;;20.20;78.50;;;;;;5137412;27;19960;-76
2023/03/12 10:36:24;;;;;;;;;;;20.20;78.50;;;;;;5119347;27;19939;-76
2023/03/12 10:38:49;;;;;;;;;;;20.20;78.60;;;;;;5102668;28;19912;-75
2023/03/12 10:41:27;;;;;;;;;;;20.20;78.70;;;;;;5116969;28;20346;-82
2023/03/12 10:43:53;;;;;;;;;;;20.20;78.70;;;;;;5101070;28;19920;-75
2023/03/12 10:46:40;;;;;;;;;;;20.20;78.70;;;;;;5125436;27;20355;-80
2023/03/12 10:49:21;;;;;;;;;;;20.20;78.80;;;;;;5123479;27;20366;-75
2023/03/12 10:52:00;;;;;;;;;;;20.10;78.80;;;;;;5116812;28;19911;-69
2023/03/12 10:54:30;;;;;;;;;;;20.20;78.80;;;;;;5116588;28;20012;-71
2023/03/12 10:56:56;;;;;;;;;;;20.20;79.50;;;;;;5113314;28;19920;-69
2023/03/12 10:59:24;;;;;;;;;;;20.20;78.90;;;;;;5095109;28;19930;-71
2023/03/12 11:01:50;;;;;;;;;;;20.20;79.50;;;;;;5110336;28;20293;-70
2023/03/12 11:04:22;;;;;;;;;;;20.20;78.90;;;;;;5114283;28;19939;-65
2023/03/12 11:07:04;;;;;;;;;;;20.20;79.00;;;;;;5111254;28;20003;-74
2023/03/12 11:09:30;;;;;;;;;;;20.20;79.00;;;;;;5098102;28;19908;-72
2023/03/12 11:11:55;;;;;;;;;;;20.20;78.90;;;;;;5112519;28;20014;-72
2023/03/12 11:14:25;;;;;;;;;;;20.20;78.90;;;;;;5097717;28;19912;-74
2023/03/12 11:16:51;;;;;;;;;;;20.30;78.90;;;;;;5111920;28;19954;-68
2023/03/12 11:19:28;;;;;;;;;;;20.30;78.80;;;;;;5115996;28;20360;-72
2023/03/12 11:21:56;;;;;;;;;;;20.10;75.60;;;;;;5112657;28;19920;-72
2023/03/12 11:24:21;;;;;;;;;;;20.20;77.80;;;;;;5114298;28;19955;-72
2023/03/12 11:27:01;;;;;;;;;;;20.30;78.00;;;;;;5113390;28;19954;-69
2023/03/12 11:29:26;;;;;;;;;;;20.30;78.20;;;;;;5113636;28;19915;-64
2023/03/12 11:31:54;;;;;;;;;;;20.40;78.20;;;;;;5114131;28;19931;-70
2023/03/12 11:34:23;;;;;;;;;;;20.40;78.10;;;;;;5114934;28;19919;-69
2023/03/12 11:36:54;;;;;;;;;;;20.40;77.90;;;;;;5112062;28;20002;-70
2023/03/12 11:39:22;;;;;;;;;;;20.40;78.00;;;;;;5115575;28;19916;-70
2023/03/12 11:42:07;;;;;;;;;;;20.40;78.00;;;;;;5096899;28;19923;-70
2023/03/12 11:44:52;;;;;;;;;;;20.40;77.80;;;;;;5119156;27;19958;-70
2023/03/12 11:47:31;;;;;;;;;;;20.40;77.80;;;;;;5084226;28;19909;-69
2023/03/12 11:49:59;;;;;;;;;;;20.50;77.90;;;;;;5126270;27;19916;-70
2023/03/12 11:52:27;;;;;;;;;;;20.50;77.90;;;;;;5136334;27;19909;-70
2023/03/12 11:54:59;;;;;;;;;;;20.50;77.80;;;;;;5106559;28;19987;-69
2023/03/12 11:57:40;;;;;;;;;;;20.50;77.70;;;;;;5115242;28;19957;-70
2023/03/12 12:00:13;;;;;;;;;;;20.50;77.60;;;;;;5113086;28;20373;-70
2023/03/12 12:02:57;;;;;;;;;;;20.50;77.60;;;;;;5111432;28;19920;-69
2023/03/12 12:05:46;;;;;;;;;;;20.50;77.60;;;;;;5105586;28;19927;-70
2023/03/12 12:08:17;;;;;;;;;;;20.60;77.70;;;;;;5105065;28;19912;-67
2023/03/12 12:10:46;;;;;;;;;;;20.60;77.70;;;;;;5113006;28;19919;-69
2023/03/12 12:13:14;;;;;;;;;;;20.60;77.60;;;;;;5112577;28;19942;-69
2023/03/12 12:16:06;;;;;;;;;;;20.60;77.70;;;;;;5114728;28;19908;-69
2023/03/12 12:18:50;;;;;;;;;;;20.50;77.60;;;;;;5114984;28;19908;-69
2023/03/12 12:21:40;;;;;;;;;;;20.40;77.80;;;;;;5110128;28;19912;-69
2023/03/12 12:24:08;;;;;;;;;;;20.40;77.80;;;;;;5100923;28;19958;-70
2023/03/12 12:26:52;;;;;;;;;;;20.40;78.00;;;;;;5115206;28;20006;-70
2023/03/12 12:29:29;;;;;;;;;;;20.30;78.10;;;;;;5115064;28;20007;-70
2023/03/12 12:31:56;;;;;;;;;;;20.30;78.20;;;;;;5114821;28;19908;-70
2023/03/12 12:34:36;;;;;;;;;;;20.30;78.20;;;;;;5123112;27;20006;-70
2023/03/12 12:37:20;;;;;;;;;;;20.30;78.10;;;;;;5124254;27;19908;-69
2023/03/12 12:39:49;;;;;;;;;;;20.30;78.10;;;;;;5114460;28;19930;-69
2023/03/12 12:42:18;;;;;;;;;;;20.30;78.20;;;;;;5114080;28;19927;-70
2023/03/12 12:44:47;;;;;;;;;;;20.30;78.20;;;;;;5128893;27;21339;-69
2023/03/12 12:47:17;;;;;;;;;;;20.30;78.10;;;;;;5134673;27;19930;-69
2023/03/12 12:49:45;;;;;;;;;;;20.30;78.10;;;;;;5121092;27;20366;-69
2023/03/12 12:52:16;;;;;;;;;;;20.30;78.00;;;;;;5103554;28;19941;-70
2023/03/12 12:54:41;;;;;;;;;;;20.40;76.80;;;;;;5098299;28;19938;-70
2023/03/12 12:57:07;;;;;;;;;;;20.30;77.80;;;;;;5110565;28;19924;-70
2023/03/12 12:59:41;;;;;;;;;;;20.40;77.80;;;;;;5113082;28;20002;-71
2023/03/12 13:02:19;;;;;;;;;;;20.30;77.90;;;;;;5096028;28;19998;-70
2023/03/12 13:04:45;;;;;;;;;;;20.30;77.80;;;;;;5096051;28;19912;-70
2023/03/12 13:07:11;;;;;;;;;;;20.30;77.80;;;;;;5114149;28;19908;-70
2023/03/12 13:09:38;;;;;;;;;;;20.30;77.70;;;;;;5114357;28;19953;-69
2023/03/12 13:12:12;;;;;;;;;;;20.40;77.80;;;;;;5114125;28;20002;-70
2023/03/12 13:14:39;;;;;;;;;;;20.40;77.70;;;;;;5114167;28;19984;-71
2023/03/12 13:17:05;;;;;;;;;;;20.40;77.70;;;;;;5114276;28;19907;-70
2023/03/12 13:19:37;;;;;;;;;;;20.40;77.60;;;;;;5114223;28;19908;-69
2023/03/12 13:22:08;;;;;;;;;;;20.50;77.60;;;;;;5109455;28;19930;-70
2023/03/12 13:24:52;;;;;;;;;;;20.40;77.50;;;;;;5081248;28;19916;-70
2023/03/12 13:27:20;;;;;;;;;;;20.50;77.40;;;;;;5094344;28;20256;-66
2023/03/12 13:29:46;;;;;;;;;;;20.50;76.60;;;;;;5082858;28;19923;-68
2023/03/12 13:32:30;;;;;;;;;;;20.60;76.90;;;;;;5108370;28;19907;-65
2023/03/12 13:34:56;;;;;;;;;;;20.60;76.40;;;;;;5114327;28;20396;-66
2023/03/12 13:37:47;;;;;;;;;;;20.60;76.20;;;;;;5117684;28;19951;-67
2023/03/12 13:40:28;;;;;;;;;;;20.50;76.10;;;;;;5093715;28;19927;-65
2023/03/12 13:43:10;;;;;;;;;;;20.50;76.30;;;;;;5118040;28;20002;-67
2023/03/12 13:45:54;;;;;;;;;;;20.50;76.10;;;;;;5112234;28;20007;-67
2023/03/12 13:48:20;;;;;;;;;;;20.50;76.00;;;;;;5117844;28;20274;-67
2023/03/12 13:50:50;;;;;;;;;;;20.50;76.10;;;;;;5117904;27;19912;-66
2023/03/12 13:53:20;;;;;;;;;;;20.50;76.10;;;;;;5118046;27;20358;-74
2023/03/12 13:55:50;;;;;;;;;;;20.50;75.80;;;;;;5117259;27;19922;-72
2023/03/12 13:58:20;;;;;;;;;;;20.50;76.60;;;;;;5115656;28;19907;-71
2023/03/12 14:00:52;;;;;;;;;;;20.60;76.90;;;;;;5117875;28;19998;-71
2023/03/12 14:03:39;;;;;;;;;;;20.60;76.90;;;;;;5116797;28;19912;-72
2023/03/12 14:06:09;;;;;;;;;;;20.60;76.80;;;;;;5115751;28;19920;-72
2023/03/12 14:08:54;;;;;;;;;;;20.60;76.80;;;;;;5116053;28;19916;-71
2023/03/12 14:11:22;;;;;;;;;;;20.60;76.80;;;;;;5117108;28;19912;-67
2023/03/12 14:14:03;;;;;;;;;;;20.60;76.80;;;;;;5104104;28;19915;-73
2023/03/12 14:16:31;;;;;;;;;;;20.70;77.00;;;;;;5105265;28;19919;-71
2023/03/12 14:18:57;;;;;;;;;;;20.70;76.70;;;;;;5116920;28;20371;-73
2023/03/12 14:21:29;;;;;;;;;;;20.70;76.80;;;;;;5126211;27;19907;-73